N0PJH Weather Reports


Display with metric or nautical units.
time (UTC)temp
F
wind
direction
speed
MPH
gust
MPH
rain 1hr
in
rain 24hr
in
rain mn
in
humidity
%
barometer
mb
20260906180054 97 213 1.0 3.0 0.00 0.00 0.00 46 1015.3
20260906174558 96 178 1.0 4.0 0.00 0.00 0.00 47 1015.5
20260906173100 96 244 0.0 2.0 0.00 0.00 0.00 48 1015.7
20260906171555 95 0 1.0 4.0 0.00 0.00 0.00 50 1016.0
20260906170053 95 257 1.0 3.0 0.00 0.00 0.00 52 1016.3
20260906164551 94 196 1.0 6.0 0.00 0.00 0.00 51 1016.2
20260906163056 94 51 1.0 4.0 0.00 0.00 0.00 55 1016.3
20260906161554 93 103 1.0 4.0 0.00 0.00 0.00 54 1016.2
20260906160047 92 88 2.0 5.0 0.00 0.00 0.00 56 1016.3
20260906154554 91 72 2.0 7.0 0.00 0.00 0.00 57 1016.1
20260906153054 91 207 1.0 4.0 0.00 0.00 0.00 57 1015.9
20260906151553 90 86 1.0 4.0 0.00 0.00 0.00 58 1016.0
20260906150059 89 187 1.0 4.0 0.00 0.00 0.00 59 1016.0
20260906144557 88 92 1.0 3.0 0.00 0.00 0.00 61 1016.1
20260906143057 87 96 1.0 3.0 0.00 0.00 0.00 62 1016.1
20260906141553 86 91 1.0 8.0 0.00 0.00 0.00 62 1016.1
20260906140052 86 69 1.0 3.0 0.00 0.00 0.00 64 1015.9
20260906134602 85 60 1.0 4.0 0.00 0.00 0.00 65 1015.9
20260906133056 84 81 1.0 3.0 0.00 0.00 0.00 66 1015.7
20260906131554 82 0 0.0 2.0 0.00 0.00 0.00 69 1015.6
20260906130119 81 99 0.0 2.0 0.00 0.00 0.00 71 1015.3
20260906124549 80 0 0.0 2.0 0.00 0.02 0.00 72 1015.1
20260906123100 78 0 0.0 2.0 0.00 0.02 0.00 75 1015.1
20260906121604 78 0 0.0 2.0 0.00 0.02 0.00 75 1014.9
20260906120057 78 0 0.0 2.0 0.00 0.02 0.00 75 1014.9
20260906114555 77 0 0.0 2.0 0.00 0.04 0.00 76 1015.0
20260906113057 77 0 0.0 2.0 0.00 0.04 0.00 77 1014.8
20260906111552 76 0 0.0 2.0 0.00 0.04 0.00 77 1014.7
20260906110047 76 0 0.0 0.0 0.00 0.04 0.00 78 1014.7
20260906104556 76 0 0.0 1.0 0.00 0.04 0.00 78 1014.6
20260906103058 77 0 0.0 0.0 0.00 0.04 0.00 77 1014.6
20260906101553 77 0 0.0 0.0 0.00 0.04 0.00 76 1014.6
20260906100048 77 0 0.0 0.0 0.00 0.04 0.00 76 1014.4
20260906094557 77 0 0.0 0.0 0.00 0.04 0.00 76 1014.3
20260906093059 77 0 0.0 0.0 0.00 0.04 0.00 75 1014.4
20260906091557 78 0 0.0 0.0 0.00 0.04 0.00 75 1014.4
20260906090058 78 0 0.0 0.0 0.00 0.04 0.00 74 1014.2
20260906084552 78 0 0.0 0.0 0.00 0.04 0.00 72 1014.2
20260906083051 79 0 0.0 2.0 0.00 0.04 0.00 72 1013.9
20260906081547 79 0 0.0 1.0 0.00 0.04 0.00 72 1014.0
20260906080057 79 0 0.0 0.0 0.00 0.04 0.00 72 1014.1
20260906074557 79 0 0.0 0.0 0.00 0.04 0.00 72 1014.0
20260906073051 79 0 0.0 0.0 0.00 0.04 0.00 72 1014.1
20260906071546 80 0 0.0 0.0 0.00 0.04 0.00 72 1014.2
20260906070051 80 0 0.0 0.0 0.00 0.04 0.00 70 1014.1
20260906064546 81 0 0.0 0.0 0.00 0.04 0.00 68 1014.2
20260906063057 82 0 0.0 0.0 0.00 0.04 0.00 67 1014.1
20260906061559 82 0 0.0 2.0 0.00 0.04 0.00 66 1014.2
20260906060119 83 0 0.0 2.0 0.00 0.04 0.00 66 1014.3
20260906054556 83 0 0.0 2.0 0.00 0.04 0.00 65 1014.5
20260906053053 83 0 0.0 2.0 0.00 0.04 0.00 65 1014.5
20260906051603 84 0 0.0 2.0 0.00 0.04 0.00 64 1014.5
20260906050104 84 95 0.0 2.0 0.00 0.04 0.00 64 1014.4
20260906044557 84 0 0.0 2.0 0.00 0.04 0.04 65 1014.5
20260906043053 84 87 0.0 2.0 0.00 0.04 0.04 65 1014.5
20260906041552 85 0 0.0 2.0 0.00 0.04 0.04 65 1014.3
20260906040057 85 0 0.0 2.0 0.00 0.04 0.04 64 1014.3
20260906034602 86 0 0.0 2.0 0.00 0.04 0.04 63 1014.3
20260906033054 86 77 0.0 2.0 0.00 0.04 0.04 62 1014.1
20260906031551 86 0 0.0 2.0 0.00 0.04 0.04 62 1014.1
20260906030057 87 0 0.0 2.0 0.00 0.04 0.04 61 1013.9
20260906024553 87 0 0.0 2.0 0.00 0.04 0.04 60 1013.4
20260906023053 87 82 0.0 2.0 0.00 0.04 0.04 60 1013.2
20260906021554 87 71 0.0 2.0 0.00 0.04 0.04 61 1012.9
20260906020100 87 0 0.0 2.0 0.00 0.04 0.04 60 1012.9
20260906014554 87 0 0.0 2.0 0.00 0.04 0.04 60 1012.8
20260906013056 87 0 0.0 2.0 0.00 0.04 0.04 59 1012.6
20260906011604 88 0 0.0 2.0 0.00 0.04 0.04 60 1012.5
20260906010055 90 0 0.0 2.0 0.00 0.04 0.04 52 1012.4
20260906004601 93 0 0.0 0.0 0.00 0.04 0.04 49 1012.4
20260906003056 94 0 0.0 0.0 0.00 0.04 0.04 45 1012.4
20260906001554 96 0 0.0 2.0 0.00 0.04 0.04 44 1012.4
20260906000052 98 0 0.0 2.0 0.00 0.04 0.04 42 1012.4
20260905234557 99 202 0.0 2.0 0.00 0.04 0.04 40 1012.3
20260905233053 99 0 0.0 2.0 0.00 0.04 0.04 39 1012.4
20260905231553 99 207 0.0 2.0 0.00 0.04 0.04 38 1012.3
20260905230049 99 274 1.0 5.0 0.00 0.04 0.04 39 1012.2
20260905224554 99 205 1.0 3.0 0.00 0.04 0.04 39 1012.3
20260905223054 98 214 0.0 3.0 0.00 0.04 0.04 39 1012.3
20260905221544 98 241 1.0 3.0 0.00 0.04 0.04 38 1012.5
20260905220055 98 85 1.0 4.0 0.00 0.04 0.04 39 1012.7
20260905214557 100 93 1.0 3.0 0.00 0.04 0.04 37 1012.7
20260905213054 99 0 1.0 3.0 0.00 0.04 0.04 37 1012.9
20260905211607 99 203 1.0 5.0 0.00 0.04 0.04 38 1013.0
20260905204545 99 208 1.0 6.0 0.00 0.04 0.04 37 1013.3
20260905203052 99 148 1.0 6.0 0.00 0.04 0.04 37 1013.6
20260905201552 99 88 2.0 4.0 0.00 0.04 0.04 37 1013.8
20260905200057 99 207 1.0 4.0 0.00 0.04 0.04 41 1013.9
20260905194548 100 194 1.0 4.0 0.00 0.04 0.04 39 1014.0
20260905193056 99 196 1.0 6.0 0.00 0.04 0.04 43 1014.1
20260905191550 99 188 1.0 3.0 0.00 0.04 0.04 41 1014.2
20260905190059 99 291 1.0 5.0 0.00 0.04 0.04 41 1014.3
20260905184552 98 207 1.0 4.0 0.00 0.04 0.04 42 1014.4
20260905183114 98 210 2.0 6.0 0.00 0.04 0.04 43 1014.7
20260905181551 97 0 1.0 6.0 0.00 0.04 0.04 44 1015.0